Overview Statistics Trail Chart Weather Telemetry Raw packets
 

This is the latest recevied telemetry packets stored in our database for station/object IS0HME-11. If no packets are shown the sender has not sent any telemetry packets the latest 10 day(s).

Telemetry packets is used to share measurements like repeteater parameters, battery voltage, radiation readings (or any other measurements).

<< 1 2 3 4 >>
Time Press* Temp.in* Hum* QNH* Temp.out*
1788603291 1018.9 hPa 41.3 C deg 24.5 % 1025 hPa 0 C deg
1788601504 1019.2 hPa 38.7 C deg 28.1 % 1025.4 hPa 0 C deg
1788601492 1019.2 hPa 38.7 C deg 28.1 % 1025.4 hPa 0 C deg
1788599647 1019.5 hPa 38.2 C deg 29.7 % 1025.7 hPa 0 C deg
1788574960 1018.4 hPa 22.6 C deg 81.8 % 1024.8 hPa 0 C deg
1788573146 1018.4 hPa 22.3 C deg 82.2 % 1024.9 hPa 0 C deg
1788573132 1018.4 hPa 22.3 C deg 82.2 % 1024.9 hPa 0 C deg
1788571323 1018.4 hPa 23.1 C deg 80.2 % 1024.9 hPa 0 C deg
1788569511 1018.6 hPa 23.2 C deg 81.4 % 1025 hPa 0 C deg
1788569503 1018.6 hPa 23.2 C deg 81.4 % 1025 hPa 0 C deg
1788569503 1018.6 hPa 23.2 C deg 81.4 % 1025 hPa 0 C deg
1788567689 1018.8 hPa 23.6 C deg 80.1 % 1025.2 hPa 0 C deg
1788565892 1018.9 hPa 24.1 C deg 77.6 % 1025.4 hPa 0 C deg
1788565880 1018.9 hPa 24.1 C deg 77.6 % 1025.4 hPa 0 C deg
1788564062 1019.2 hPa 24.3 C deg 76.9 % 1025.6 hPa 0 C deg
1788562258 1019.2 hPa 24.7 C deg 74.6 % 1025.6 hPa 0 C deg
1788562251 1019.2 hPa 24.7 C deg 74.6 % 1025.6 hPa 0 C deg
1788560428 1019.2 hPa 24.8 C deg 72.7 % 1025.6 hPa 0 C deg
1788558627 1019.1 hPa 25.4 C deg 68.4 % 1025.5 hPa 0 C deg
1788556802 1019.1 hPa 25.6 C deg 66.3 % 1025.5 hPa 0 C deg
1788554983 1019.2 hPa 25.5 C deg 67.5 % 1025.6 hPa 0 C deg
1788553177 1019.2 hPa 25.9 C deg 67.4 % 1025.7 hPa 0 C deg
1788551352 1019.2 hPa 26.5 C deg 67.1 % 1025.6 hPa 0 C deg
1788549556 1019.1 hPa 26.8 C deg 73.1 % 1025.5 hPa 0 C deg
1788547723 1018.8 hPa 26.6 C deg 72.4 % 1025.2 hPa 0 C deg
*Used Equation Coefficients:
Press: 0, 1, 0
Temp.in: 0, 1, 0
Hum: 0, 1, 0
QNH: 0, 1, 0
Temp.out: 0, 1, 0

  • The parameter names for the analog channels will be Value1, Value2, Value3 (up to Value5) if station has not sent a PARAM-packet that specifies the parameter names for each analog channel.
  • Each analog value is a decimal number between 000 and 255 (according to APRS specifications). The receiver use the telemetry equation coefficientsto to restore the original sensor values. If no EQNS-packet with equation coefficients is sent we will show the values as is (this corresponds to the equation coefficients a=0, b=1 and c=0).
    The sent equation coefficients is used in the equation: a * value2 + b * value + c.
  • The units for the analog values will not be shown if station has not sent a UNIT-packet specifying what unit's to use.
  • The parameter names for the digital bits will be Bit1, Bit2, Bit3 (up to Bit8) if station has not sent a PARAM-packet that specifies the parameter names for each digital bit.
  • All bit labels will be named "On" if station has not sent a UNIT-packet that specifies the label of each bit.
  • A bit is considered to be On when the bit is 1 if station has not sent a BITS-packet that specifies another "Bit sense" (a BITS-packet specify the state of the bits that match the BIT labels)